Airfield :
LOGIN :

Register | Disclaimer

   EN    FR    IT 

 










Legend :    VFR   Marginal VFR   IFR   Intensive IFR   Very Intensive IFR
Visi :
Ceiling :
>= 8 km
>= 3000ft
5 to 8 km
1000 to 3000 ft
1500m to 5 km
500 to 1000 ft
800 to 1500m
200 to 500 ft
< 800m
< 200 ft
Symbols :   Thunderstorms  Fog  Heavy snow  Heavy precipitations  Wind > 20 kt
SIGMETs :     Misc.  Thunderstorms  Icing  Turbulence  Mountain Waves  Volcanic Ashes






- Airport Elevation : 59 ft
- IATA code : TSF


LIPH - Treviso

CURRENT METAR :
  • 050050Z AUTO 05006KT 9999 BKN081/// BKN120/// 21/18 Q1006

EXPIRED METARs :
  • 050020Z AUTO 06010KT 9999 BKN082/// 21/18 Q1006
  • 042350Z AUTO 02007KT 350V050 9999 BKN099/// 21/18 Q1006
  • 042320Z AUTO 04005KT 010V070 9999 SCT110/// BKN130/// 21/18 Q1006
  • 042250Z AUTO 05007KT 9999 FEW027/// BKN110/// 21/18 Q1007
  • 042220Z AUTO 06006KT 9999 BKN026/// BKN096/// 22/19 Q1008

TAF TAF LIPH
Valid from the 05 at 00:00 until the 06 at 00:00 UTC


042300Z 0500/0524 VRB06KT 9999 SCT030 BKN070
TEMPO 0500/0507 TSRA
TEMPO 0518/0524 TSRA



MET'MAP, your aeronautical weather chart ! - Copyright ORBIFLY December 2007 - Disclaimer

ORBIFLY MET'MAP TEAM :

Programming & Development : Alexandra Zaïnal
Concept & original design : Baudouin d'Aumeries
Assistance for programming : Marc-Olivier Méhu
Technical & hardware support : Manuel Goepfert

Contact : metmap@orbifly.com




SOURCES & CREDITS :

   NOAA